createdAt,value
2023-01-18T00:00:43.839Z,89.89
2023-01-18T00:03:13.240Z,90.00
2023-01-18T00:05:43.245Z,90.05
2023-01-18T00:08:12.261Z,89.81
2023-01-18T00:10:40.271Z,89.31
2023-01-18T00:13:08.303Z,90.05
2023-01-18T00:15:39.750Z,90.44
2023-01-18T00:18:07.732Z,89.71
2023-01-18T00:20:35.709Z,88.92
2023-01-18T00:23:04.196Z,89.22
2023-01-18T00:25:32.845Z,89.13
2023-01-18T00:28:00.865Z,90.05
2023-01-18T00:30:29.876Z,90.22
2023-01-18T00:33:00.868Z,90.79
2023-01-18T00:35:28.983Z,90.47
2023-01-18T00:37:57.167Z,90.38
2023-01-18T00:40:28.405Z,91.16
2023-01-18T00:43:16.418Z,91.38
2023-01-18T00:45:44.440Z,91.25
2023-01-18T00:48:13.789Z,91.02
2023-01-18T00:50:42.216Z,91.52
2023-01-18T00:53:10.067Z,91.37
2023-01-18T00:55:37.898Z,90.15
2023-01-18T00:58:06.187Z,90.62
2023-01-18T01:00:34.451Z,89.85
2023-01-18T01:03:02.444Z,90.55
2023-01-18T01:05:48.961Z,90.23
2023-01-18T01:08:18.214Z,91.19
2023-01-18T01:10:47.339Z,90.74
2023-01-18T01:13:34.550Z,90.87
2023-01-18T01:16:23.694Z,91.88
2023-01-18T01:19:09.964Z,90.91
2023-01-18T01:21:57.032Z,91.28
2023-01-18T01:24:42.630Z,91.39
2023-01-18T01:27:11.991Z,91.29
2023-01-18T01:29:40.101Z,90.24
2023-01-18T01:32:08.842Z,90.25
2023-01-18T01:34:37.290Z,90.74
2023-01-18T01:37:07.122Z,90.71
2023-01-18T01:39:35.456Z,90.81
2023-01-18T01:42:03.525Z,90.00
2023-01-18T01:44:52.452Z,90.41
2023-01-18T01:47:34.262Z,89.83
2023-01-18T01:50:09.348Z,90.15
2023-01-18T01:52:40.459Z,89.57
2023-01-18T01:55:12.388Z,89.83
2023-01-18T01:57:45.177Z,90.53
2023-01-18T02:00:17.179Z,90.64
2023-01-18T02:02:50.417Z,90.99
2023-01-18T02:05:19.469Z,92.01
2023-01-18T02:07:49.425Z,91.24
2023-01-18T02:10:17.884Z,91.34
2023-01-18T02:12:48.925Z,91.89
2023-01-18T02:15:19.199Z,92.42
2023-01-18T02:18:00.766Z,92.86
2023-01-18T02:21:00.466Z,92.69
2023-01-18T02:23:57.697Z,92.43
2023-01-18T02:26:54.628Z,93.36
2023-01-18T02:29:48.939Z,92.77
2023-01-18T02:32:25.028Z,92.18
2023-01-18T02:35:02.621Z,92.86
2023-01-18T02:37:42.651Z,92.81
2023-01-18T02:40:19.386Z,93.13
2023-01-18T02:43:05.762Z,93.91
2023-01-18T02:45:57.766Z,93.75
2023-01-18T02:48:31.441Z,94.28
2023-01-18T02:50:59.711Z,93.80
2023-01-18T02:53:27.868Z,94.96
2023-01-18T02:56:00.514Z,93.51
2023-01-18T02:58:33.225Z,94.16
2023-01-18T03:01:07.519Z,94.11
2023-01-18T03:03:36.753Z,94.92
2023-01-18T03:06:09.031Z,94.28
2023-01-18T03:08:42.290Z,93.94
2023-01-18T03:11:17.719Z,94.27
2023-01-18T03:14:00.256Z,94.92
2023-01-18T03:16:40.517Z,94.03
2023-01-18T03:19:32.755Z,93.42
2023-01-18T03:22:04.278Z,93.72
2023-01-18T03:24:31.356Z,94.61
2023-01-18T03:27:19.401Z,94.27
2023-01-18T03:30:05.102Z,94.76
2023-01-18T03:32:54.155Z,94.14
2023-01-18T03:35:27.203Z,94.21
2023-01-18T03:37:58.298Z,95.16
2023-01-18T03:40:30.156Z,94.53
2023-01-18T03:43:05.113Z,93.05
2023-01-18T03:45:37.584Z,92.96
2023-01-18T03:48:10.406Z,93.26
2023-01-18T03:50:49.384Z,93.00
2023-01-18T03:53:29.902Z,93.92
2023-01-18T03:56:03.358Z,93.54
2023-01-18T03:58:37.474Z,93.54
2023-01-18T04:01:06.399Z,93.55
2023-01-18T04:03:37.246Z,94.28
2023-01-18T04:06:07.556Z,94.60
2023-01-18T04:08:35.447Z,94.59
2023-01-18T04:11:03.321Z,93.31
2023-01-18T04:13:31.388Z,93.37
2023-01-18T04:15:59.303Z,92.93
2023-01-18T04:18:27.396Z,93.10
2023-01-18T04:20:56.655Z,93.92
2023-01-18T04:23:24.920Z,94.39
2023-01-18T04:25:52.938Z,94.01
2023-01-18T04:28:25.402Z,94.42
2023-01-18T04:30:53.896Z,94.95
2023-01-18T04:33:22.857Z,94.47
2023-01-18T04:35:54.344Z,94.68
2023-01-18T04:38:23.862Z,94.00
2023-01-18T04:40:51.786Z,94.87
2023-01-18T04:43:20.605Z,94.14
2023-01-18T04:45:55.143Z,95.20
2023-01-18T04:48:23.852Z,95.96
2023-01-18T04:50:52.356Z,94.89
2023-01-18T04:53:20.695Z,95.15
2023-01-18T04:55:50.678Z,94.92
2023-01-18T04:58:18.542Z,94.78
2023-01-18T05:00:46.481Z,95.67
2023-01-18T05:03:14.855Z,95.19
2023-01-18T05:05:42.692Z,95.79
2023-01-18T05:08:10.568Z,95.67
2023-01-18T05:10:39.041Z,95.31
2023-01-18T05:13:08.293Z,95.02
2023-01-18T05:15:36.189Z,94.94
2023-01-18T05:18:05.725Z,95.28
2023-01-18T05:20:33.640Z,94.96
2023-01-18T05:23:11.052Z,94.08
2023-01-18T05:25:40.632Z,94.75
2023-01-18T05:28:10.564Z,94.63
2023-01-18T05:30:41.198Z,94.74
2023-01-18T05:33:09.708Z,95.48
2023-01-18T05:35:37.944Z,94.40
2023-01-18T05:38:06.538Z,94.19
2023-01-18T05:40:34.763Z,94.57
2023-01-18T05:43:02.680Z,93.41
2023-01-18T05:45:32.326Z,94.90
2023-01-18T05:48:00.392Z,94.35
2023-01-18T05:50:28.252Z,94.40
2023-01-18T05:52:58.573Z,94.37
2023-01-18T05:55:26.695Z,94.98
2023-01-18T05:57:54.605Z,95.08
2023-01-18T06:00:23.748Z,94.74
2023-01-18T06:02:53.673Z,94.17
2023-01-18T06:05:22.154Z,95.03
2023-01-18T06:07:50.154Z,94.66
2023-01-18T06:10:18.757Z,95.00
2023-01-18T06:12:47.023Z,94.43
2023-01-18T06:15:17.251Z,94.31
2023-01-18T06:17:46.332Z,94.27
2023-01-18T06:20:15.959Z,93.50
2023-01-18T06:22:45.918Z,94.46
2023-01-18T06:25:13.875Z,94.51
2023-01-18T06:27:42.720Z,94.92
2023-01-18T06:30:12.079Z,93.22
2023-01-18T06:32:40.339Z,94.07
2023-01-18T06:35:08.981Z,95.11
2023-01-18T06:37:38.397Z,94.41
2023-01-18T06:40:07.814Z,94.72
2023-01-18T06:42:36.212Z,95.03
2023-01-18T06:45:05.177Z,94.72
2023-01-18T06:47:33.037Z,94.63
2023-01-18T06:50:00.950Z,95.78
2023-01-18T06:52:29.130Z,96.13
2023-01-18T06:54:58.406Z,96.07
2023-01-18T06:57:27.254Z,95.08
2023-01-18T06:59:55.454Z,96.45
2023-01-18T07:02:23.518Z,96.29
2023-01-18T07:04:51.404Z,95.98
2023-01-18T07:07:19.342Z,96.04
2023-01-18T07:09:47.646Z,95.73
2023-01-18T07:12:17.307Z,95.61
2023-01-18T07:14:45.166Z,95.35
2023-01-18T07:17:13.508Z,96.21
2023-01-18T07:19:41.376Z,97.02
2023-01-18T07:22:09.542Z,95.76
2023-01-18T07:24:37.839Z,95.33
2023-01-18T07:27:06.237Z,95.65
2023-01-18T07:29:37.374Z,95.72
2023-01-18T07:32:05.936Z,95.20
2023-01-18T07:34:34.280Z,96.36
2023-01-18T07:37:02.284Z,95.63
2023-01-18T07:39:31.224Z,95.61
2023-01-18T07:41:59.459Z,96.54
2023-01-18T07:44:27.551Z,95.88
2023-01-18T07:46:57.413Z,95.86
2023-01-18T07:49:25.253Z,97.02
2023-01-18T07:51:53.098Z,96.41
2023-01-18T07:54:21.709Z,97.10
2023-01-18T07:56:50.158Z,95.87
2023-01-18T07:59:18.149Z,96.51
2023-01-18T08:01:46.520Z,95.24
2023-01-18T08:04:15.722Z,96.12
2023-01-18T08:06:43.532Z,95.25
2023-01-18T08:09:11.788Z,96.21
2023-01-18T08:11:40.086Z,96.74
2023-01-18T08:14:07.924Z,96.22
2023-01-18T08:16:36.138Z,94.87
2023-01-18T08:19:04.235Z,94.96
2023-01-18T08:21:33.613Z,95.48
2023-01-18T08:24:01.950Z,95.62
2023-01-18T08:26:30.004Z,96.18
2023-01-18T08:28:58.942Z,96.17
2023-01-18T08:31:26.891Z,97.33
2023-01-18T08:33:55.282Z,95.98
2023-01-18T08:36:25.627Z,95.72
2023-01-18T08:38:58.340Z,94.80
2023-01-18T08:41:28.634Z,94.82
2023-01-18T08:43:58.021Z,94.63
2023-01-18T08:46:26.938Z,95.20
2023-01-18T08:49:00.233Z,95.24
2023-01-18T08:51:29.495Z,95.14
2023-01-18T08:53:59.885Z,94.89
2023-01-18T08:56:28.792Z,94.56
2023-01-18T08:58:57.734Z,94.61
2023-01-18T09:01:26.185Z,95.65
2023-01-18T09:03:55.794Z,95.56
2023-01-18T09:06:24.157Z,95.18
2023-01-18T09:08:53.169Z,94.44
2023-01-18T09:11:22.483Z,94.80
2023-01-18T09:14:00.687Z,95.37
2023-01-18T09:16:30.579Z,94.01
2023-01-18T09:18:58.781Z,94.78
2023-01-18T09:21:28.652Z,94.26
2023-01-18T09:23:57.509Z,94.18
2023-01-18T09:26:28.500Z,94.90
2023-01-18T09:28:56.405Z,94.40
2023-01-18T09:31:26.547Z,95.08
2023-01-18T09:34:06.308Z,95.31
2023-01-18T09:36:46.024Z,94.50
2023-01-18T09:39:14.250Z,94.50
2023-01-18T09:41:47.409Z,94.27
2023-01-18T09:44:22.097Z,95.54
2023-01-18T09:46:54.405Z,95.85
2023-01-18T09:49:28.673Z,94.01
2023-01-18T09:52:06.783Z,94.58
2023-01-18T09:54:42.998Z,94.25
2023-01-18T09:57:24.034Z,93.72
2023-01-18T09:59:56.836Z,94.14
2023-01-18T10:02:29.773Z,93.95
2023-01-18T10:05:02.488Z,94.58
2023-01-18T10:07:35.453Z,94.68
2023-01-18T10:10:05.330Z,93.91
2023-01-18T10:12:41.256Z,94.11
2023-01-18T10:15:20.331Z,93.21
2023-01-18T10:17:50.181Z,94.58
2023-01-18T10:20:25.024Z,93.84
2023-01-18T10:22:58.478Z,94.68
2023-01-18T10:25:33.187Z,93.92
2023-01-18T10:28:26.276Z,94.53
2023-01-18T10:31:18.137Z,94.02
2023-01-18T10:33:47.385Z,93.32
2023-01-18T10:36:20.736Z,94.60
2023-01-18T10:38:51.423Z,93.72
2023-01-18T10:41:25.782Z,94.24
2023-01-18T10:43:55.805Z,93.21
2023-01-18T10:46:24.262Z,93.81
2023-01-18T10:48:53.850Z,93.30
2023-01-18T10:51:35.630Z,92.83
2023-01-18T10:54:23.523Z,93.07
2023-01-18T10:57:03.525Z,94.30
2023-01-18T10:59:39.711Z,93.36
2023-01-18T11:02:21.611Z,93.98
2023-01-18T11:04:57.388Z,93.72
2023-01-18T11:07:27.673Z,93.22
2023-01-18T11:09:59.479Z,93.99
2023-01-18T11:12:36.900Z,93.20
2023-01-18T11:15:25.293Z,93.07
2023-01-18T11:18:17.646Z,92.82
2023-01-18T11:20:49.995Z,93.08
2023-01-18T11:23:25.860Z,93.79
2023-01-18T11:25:58.274Z,92.96
2023-01-18T11:28:31.548Z,93.79
2023-01-18T11:31:09.584Z,93.87
2023-01-18T11:33:44.336Z,93.54
2023-01-18T11:36:12.269Z,93.67
2023-01-18T11:38:41.635Z,94.16
2023-01-18T11:41:16.669Z,93.75
2023-01-18T11:44:00.842Z,92.54
2023-01-18T11:46:42.243Z,91.03
2023-01-18T11:49:26.004Z,92.02
2023-01-18T11:52:02.252Z,92.62
2023-01-18T11:54:36.404Z,93.15
2023-01-18T11:57:05.281Z,92.80
2023-01-18T11:59:36.854Z,92.74
2023-01-18T12:02:34.435Z,93.55
2023-01-18T12:05:25.772Z,92.97
2023-01-18T12:08:04.598Z,93.88
2023-01-18T12:10:42.993Z,93.24
2023-01-18T12:13:34.264Z,92.31
2023-01-18T12:16:13.781Z,91.79
2023-01-18T12:19:16.904Z,91.44
2023-01-18T12:22:02.525Z,91.11
2023-01-18T12:24:45.826Z,90.37
2023-01-18T12:27:23.105Z,88.52
2023-01-18T12:30:12.227Z,86.97
2023-01-18T12:33:02.312Z,89.11
2023-01-18T12:35:53.329Z,89.24
2023-01-18T12:38:24.327Z,88.32
2023-01-18T12:41:18.738Z,89.45
2023-01-18T12:44:00.613Z,88.17
2023-01-18T12:46:33.053Z,89.74
2023-01-18T12:49:05.218Z,90.08
2023-01-18T12:51:38.097Z,90.17
2023-01-18T12:54:14.444Z,90.64
2023-01-18T12:56:45.791Z,89.83
2023-01-18T12:59:19.533Z,90.81
2023-01-18T13:01:51.943Z,90.20
2023-01-18T13:04:24.699Z,91.47
2023-01-18T13:06:59.098Z,90.68
2023-01-18T13:09:33.440Z,90.77
2023-01-18T13:12:04.010Z,89.79
2023-01-18T13:14:36.514Z,89.70
2023-01-18T13:17:11.604Z,91.00
2023-01-18T13:19:44.318Z,89.85
2023-01-18T13:22:23.718Z,90.76
2023-01-18T13:25:09.007Z,88.73
2023-01-18T13:27:38.793Z,88.97
2023-01-18T13:30:19.380Z,89.86
2023-01-18T13:32:49.591Z,88.30
2023-01-18T13:35:23.286Z,88.48
2023-01-18T13:37:56.616Z,88.31
2023-01-18T13:40:38.005Z,89.12
2023-01-18T13:43:07.657Z,89.46
2023-01-18T13:46:02.351Z,89.61
2023-01-18T13:48:46.626Z,89.44
2023-01-18T13:51:53.579Z,89.95
2023-01-18T13:54:59.021Z,89.72
2023-01-18T13:57:28.848Z,89.56
2023-01-18T13:59:57.810Z,89.47
2023-01-18T14:02:32.242Z,89.78
2023-01-18T14:05:04.572Z,89.20
2023-01-18T14:07:40.308Z,88.22
2023-01-18T14:10:22.301Z,87.83
2023-01-18T14:12:55.047Z,88.32
2023-01-18T14:15:48.561Z,88.66
2023-01-18T14:18:21.948Z,88.45
2023-01-18T14:21:09.907Z,89.31
2023-01-18T14:23:59.500Z,89.19
2023-01-18T14:26:30.570Z,88.63
2023-01-18T14:29:02.862Z,88.30
2023-01-18T14:31:35.282Z,87.88
2023-01-18T14:34:24.981Z,88.26
2023-01-18T14:36:53.377Z,88.73
2023-01-18T14:39:21.662Z,86.72
2023-01-18T14:41:55.175Z,86.75
2023-01-18T14:44:27.104Z,87.19
2023-01-18T14:46:57.988Z,88.14
2023-01-18T14:49:28.961Z,87.86
2023-01-18T14:51:57.879Z,86.83
2023-01-18T14:54:26.701Z,87.68
2023-01-18T14:57:03.030Z,88.55
2023-01-18T14:59:33.492Z,89.07
2023-01-18T15:02:04.046Z,88.63
2023-01-18T15:04:36.066Z,87.81
2023-01-18T15:07:07.387Z,87.16
2023-01-18T15:09:38.232Z,88.71
2023-01-18T15:12:10.213Z,88.56
2023-01-18T15:14:45.846Z,87.82
2023-01-18T15:17:23.836Z,88.77
2023-01-18T15:19:54.416Z,88.04
2023-01-18T15:22:28.477Z,86.76
2023-01-18T15:24:59.707Z,87.26
2023-01-18T15:27:30.633Z,87.68
2023-01-18T15:30:02.346Z,88.81
2023-01-18T15:32:33.564Z,89.05
2023-01-18T15:35:03.005Z,89.14
2023-01-18T15:37:33.712Z,89.29
2023-01-18T15:40:05.963Z,89.09
2023-01-18T15:42:38.732Z,89.98
2023-01-18T15:45:19.580Z,89.35
2023-01-18T15:47:50.908Z,90.52
2023-01-18T15:50:20.523Z,89.43
2023-01-18T15:52:54.387Z,90.03
2023-01-18T15:55:25.516Z,90.49
2023-01-18T15:57:59.996Z,90.43
2023-01-18T16:00:33.247Z,91.00
2023-01-18T16:03:03.682Z,90.49
2023-01-18T16:05:33.638Z,90.53
2023-01-18T16:08:18.580Z,89.88
2023-01-18T16:10:52.942Z,90.55
2023-01-18T16:13:39.087Z,91.38
2023-01-18T16:16:16.362Z,90.37
2023-01-18T16:18:47.870Z,90.25
2023-01-18T16:21:24.138Z,90.29
2023-01-18T16:23:53.632Z,90.29
2023-01-18T16:26:27.871Z,90.59
2023-01-18T16:29:06.788Z,90.07
2023-01-18T16:31:36.817Z,89.87
2023-01-18T16:34:20.665Z,90.12
2023-01-18T16:36:53.291Z,90.47
2023-01-18T16:39:21.613Z,90.40
2023-01-18T16:41:56.228Z,90.64
2023-01-18T16:44:24.894Z,90.24
2023-01-18T16:46:54.177Z,89.30
2023-01-18T16:49:22.290Z,89.66
2023-01-18T16:51:51.481Z,89.87
2023-01-18T16:54:20.073Z,89.08
2023-01-18T16:56:48.147Z,89.92
2023-01-18T16:59:18.173Z,89.50
2023-01-18T17:01:46.728Z,88.93
2023-01-18T17:04:16.821Z,89.33
2023-01-18T17:06:47.808Z,89.49
2023-01-18T17:09:24.349Z,89.84
2023-01-18T17:11:53.149Z,89.65
2023-01-18T17:14:22.108Z,89.09
2023-01-18T17:16:50.521Z,88.62
2023-01-18T17:19:22.544Z,88.69
2023-01-18T17:21:51.439Z,89.04
2023-01-18T17:24:22.133Z,89.95
2023-01-18T17:26:51.134Z,88.83
2023-01-18T17:29:21.317Z,89.18
2023-01-18T17:31:53.443Z,88.92
2023-01-18T17:34:29.062Z,89.64
2023-01-18T17:36:58.744Z,88.50
2023-01-18T17:39:42.627Z,88.91
2023-01-18T17:42:22.415Z,88.02
2023-01-18T17:45:02.978Z,89.33
2023-01-18T17:47:31.499Z,87.85
2023-01-18T17:50:04.168Z,88.87
2023-01-18T17:52:32.100Z,88.32
2023-01-18T17:55:00.172Z,89.55
2023-01-18T17:57:29.201Z,89.41
2023-01-18T17:59:57.085Z,89.29
2023-01-18T18:02:26.144Z,89.67
2023-01-18T18:04:54.582Z,90.02
2023-01-18T18:07:23.837Z,89.47
2023-01-18T18:09:57.159Z,89.71
2023-01-18T18:12:25.067Z,88.13
2023-01-18T18:14:55.822Z,88.41
2023-01-18T18:17:24.250Z,88.00
2023-01-18T18:19:52.412Z,87.73
2023-01-18T18:22:20.906Z,88.42
2023-01-18T18:24:51.488Z,88.39
2023-01-18T18:27:21.045Z,88.89
2023-01-18T18:29:49.960Z,88.28
2023-01-18T18:32:21.597Z,88.79
2023-01-18T18:34:50.910Z,89.18
2023-01-18T18:37:19.798Z,88.57
2023-01-18T18:39:48.215Z,88.88
2023-01-18T18:42:17.493Z,88.09
2023-01-18T18:44:45.443Z,89.39
2023-01-18T18:47:13.814Z,88.92
2023-01-18T18:49:42.051Z,88.45
2023-01-18T18:52:10.493Z,89.30
2023-01-18T18:54:38.579Z,88.92
2023-01-18T18:57:07.359Z,88.28
2023-01-18T18:59:36.856Z,89.20
2023-01-18T19:02:05.391Z,89.28
2023-01-18T19:04:37.032Z,88.13
2023-01-18T19:07:05.536Z,88.66
2023-01-18T19:09:34.235Z,87.95
2023-01-18T19:12:02.624Z,89.08
2023-01-18T19:14:33.173Z,88.43
2023-01-18T19:17:02.835Z,88.78
2023-01-18T19:19:31.233Z,88.71
2023-01-18T19:21:59.465Z,88.19
2023-01-18T19:24:31.744Z,88.71
2023-01-18T19:27:01.930Z,88.38
2023-01-18T19:29:30.564Z,87.98
2023-01-18T19:31:58.450Z,87.62
2023-01-18T19:34:28.310Z,87.83
2023-01-18T19:36:56.307Z,88.44
2023-01-18T19:39:24.317Z,87.66
2023-01-18T19:41:53.179Z,87.16
2023-01-18T19:44:22.498Z,87.25
2023-01-18T19:46:50.793Z,87.12
2023-01-18T19:49:20.425Z,87.46
2023-01-18T19:51:49.801Z,86.82
2023-01-18T19:54:20.748Z,87.36
2023-01-18T19:56:48.653Z,87.09
2023-01-18T19:59:16.579Z,87.40
2023-01-18T20:01:45.667Z,87.46
2023-01-18T20:04:14.671Z,86.36
2023-01-18T20:06:46.532Z,85.79
2023-01-18T20:09:20.298Z,85.90
2023-01-18T20:11:49.849Z,86.39
2023-01-18T20:14:18.385Z,86.60
2023-01-18T20:16:46.889Z,87.07
2023-01-18T20:19:15.223Z,86.05
2023-01-18T20:21:43.407Z,86.38
2023-01-18T20:24:11.585Z,85.81
2023-01-18T20:26:43.353Z,85.85
2023-01-18T20:29:11.990Z,86.57
2023-01-18T20:31:41.996Z,85.72
2023-01-18T20:34:11.560Z,86.30
2023-01-18T20:36:39.512Z,85.72
2023-01-18T20:39:11.587Z,86.49
2023-01-18T20:41:41.595Z,86.27
2023-01-18T20:44:09.639Z,86.28
2023-01-18T20:46:38.078Z,85.24
2023-01-18T20:49:06.127Z,85.21
2023-01-18T20:51:34.353Z,85.74
2023-01-18T20:54:02.771Z,85.63
2023-01-18T20:56:31.987Z,85.24
2023-01-18T20:59:02.083Z,86.07
2023-01-18T21:01:32.830Z,86.21
2023-01-18T21:04:02.519Z,85.64
2023-01-18T21:06:30.639Z,84.50
2023-01-18T21:09:00.078Z,85.41
2023-01-18T21:11:28.851Z,85.03
2023-01-18T21:13:59.041Z,85.29
2023-01-18T21:16:28.786Z,84.59
2023-01-18T21:18:59.430Z,85.21
2023-01-18T21:21:29.295Z,84.79
2023-01-18T21:23:57.646Z,84.94
2023-01-18T21:26:25.629Z,84.72
2023-01-18T21:28:53.581Z,84.77
2023-01-18T21:31:21.809Z,84.54
2023-01-18T21:33:51.599Z,84.61
2023-01-18T21:36:20.276Z,85.04
2023-01-18T21:38:48.353Z,85.13
2023-01-18T21:41:34.184Z,85.08
2023-01-18T21:44:19.671Z,84.49
2023-01-18T21:46:49.182Z,84.04
2023-01-18T21:49:54.852Z,83.93
2023-01-18T21:52:42.137Z,84.95
2023-01-18T21:55:10.882Z,84.58
2023-01-18T21:57:39.704Z,84.69
2023-01-18T22:00:09.266Z,84.51
2023-01-18T22:02:37.900Z,84.63
2023-01-18T22:05:10.230Z,83.12
2023-01-18T22:07:38.143Z,84.35
2023-01-18T22:10:07.318Z,83.85
2023-01-18T22:12:39.003Z,83.62
2023-01-18T22:15:07.887Z,83.53
2023-01-18T22:17:35.829Z,83.25
2023-01-18T22:20:05.126Z,83.69
2023-01-18T22:22:34.405Z,83.59
2023-01-18T22:25:02.683Z,83.77
2023-01-18T22:27:31.090Z,84.21
2023-01-18T22:29:58.955Z,84.04
2023-01-18T22:32:27.172Z,83.62
2023-01-18T22:34:55.130Z,84.01
2023-01-18T22:37:23.522Z,83.58
2023-01-18T22:39:53.422Z,83.73
2023-01-18T22:42:21.427Z,84.61
2023-01-18T22:44:49.266Z,84.63
2023-01-18T22:47:17.524Z,84.83
2023-01-18T22:49:45.368Z,84.22
2023-01-18T22:52:13.370Z,84.01
2023-01-18T22:54:43.060Z,84.41
2023-01-18T22:57:12.482Z,84.33
2023-01-18T22:59:40.825Z,84.68
2023-01-18T23:02:09.533Z,84.15
2023-01-18T23:04:37.500Z,83.91
2023-01-18T23:07:05.652Z,84.09
2023-01-18T23:09:33.959Z,84.66
2023-01-18T23:12:01.958Z,84.21
2023-01-18T23:14:49.377Z,84.21
2023-01-18T23:17:34.813Z,84.59
2023-01-18T23:20:03.301Z,83.62
2023-01-18T23:22:31.320Z,83.04
2023-01-18T23:24:59.714Z,83.62
2023-01-18T23:27:27.972Z,84.07
2023-01-18T23:29:58.764Z,84.46
2023-01-18T23:32:30.803Z,84.44
2023-01-18T23:34:59.776Z,84.32
2023-01-18T23:37:28.417Z,84.51
2023-01-18T23:40:13.633Z,84.87
2023-01-18T23:42:59.195Z,84.21
2023-01-18T23:45:46.738Z,83.75
2023-01-18T23:48:34.165Z,83.88
2023-01-18T23:51:22.497Z,83.30
2023-01-18T23:54:08.037Z,84.42
2023-01-18T23:56:36.057Z,84.57
2023-01-18T23:59:04.346Z,84.33
